This is the latest recevied weather packets stored in our database for station/object EA3IK-7. If no packets are shown the sender has not sent any weather packets the latest 10 day(s).
| Time | Temp. | Humidity | Pressure | Rain* | Wind** | Luminosity | Snow |
|---|---|---|---|---|---|---|---|
| 1778089815 | 20° C | 55% | 1007.6 hPa | - | - | - | - |
| 1778088015 | 20.56° C | 51% | 1007.4 hPa | - | - | - | - |
| 1778086215 | 21.11° C | 50% | 1007.2 hPa | - | - | - | - |
| 1778084415 | 21.11° C | 50% | 1007.2 hPa | - | - | - | - |
| 1778082615 | 20° C | 52% | 1007.2 hPa | - | - | - | - |
| 1778080815 | 21.67° C | 49% | 1007.2 hPa | - | - | - | - |
| 1778079023 | 22.78° C | 47% | 1007.3 hPa | - | - | - | - |
| 1778079015 | 22.78° C | 47% | 1007.3 hPa | - | - | - | - |
| 1778079014 | 22.78° C | 47% | 1007.3 hPa | - | - | - | - |
| 1778077214 | 23.33° C | 47% | 1007.4 hPa | - | - | - | - |
| 1778075414 | 23.33° C | 46% | 1007.6 hPa | - | - | - | - |
| 1778073614 | 23.33° C | 47% | 1007.9 hPa | - | - | - | - |
| 1778071815 | 22.78° C | 48% | 1008.1 hPa | - | - | - | - |
| 1778070014 | 22.78° C | 50% | 1008.3 hPa | - | - | - | - |
| 1778068214 | 22.78° C | 54% | 1008.3 hPa | - | - | - | - |
| 1778066523 | 21.67° C | 59% | 1008.5 hPa | - | - | - | - |
| 1778066414 | 21.67° C | 59% | 1008.5 hPa | - | - | - | - |
| 1778064614 | 20.56° C | 63% | 1008.6 hPa | - | - | - | - |
| 1778062814 | 18.33° C | 65% | 1009 hPa | - | - | - | - |
| 1778062814 | 18.33° C | 65% | 1009 hPa | - | - | - | - |
| 1778061022 | 17.22° C | 72% | 1009.3 hPa | - | - | - | - |
| 1778061014 | 17.22° C | 72% | 1009.3 hPa | - | - | - | - |
| 1778059214 | 16.11° C | 76% | 1009.5 hPa | - | - | - | - |
| 1778057414 | 15° C | 80% | 1009.6 hPa | - | - | - | - |
| 1778055614 | 13.89° C | 86% | 1009.5 hPa | - | - | - | - |
* Rain since midnight (hover to see other rain measurements)
** Current wind speed in m/s (hover to see current wind gust speed)